#dbistima — V2PX5 — position and weather

sailwx.info

Track history (hours):
 
Tides and Currents Weather Stations Pressure Air Temp Water Temp Dewpoint Dewpoint Depression Visibility Wind Speed Wind Dir Waves Ship Positions

#dbistima

Last reported at 2014-Oct-02 15:33 UTC. Time now 2014-Oct-02 16:31 UTC.
Position N 52°28' E 004°36'.

MMSI: 304010972.

Date/timePositionNaut miles runAvg speedWind from/ knotsBaromVisibWave heightAir tempDewpointWater temp
2014-Oct-02 15:33N 52°28' E 004°36'0 0.0
2014-Oct-02 14:33N 52°28' E 004°37'0 0.0
2014-Oct-02 13:33N 52°28' E 004°37'0 0.0
2014-Oct-02 12:33N 52°28' E 004°36'0 0.0
2014-Oct-02 11:33N 52°28' E 004°36'0 0.0
2014-Oct-02 10:33N 52°28' E 004°36'0 0.0
2014-Oct-02 09:33N 52°28' E 004°36'0 0.0
2014-Oct-02 08:33N 52°28' E 004°36'0 0.0
2014-Oct-02 07:30N 52°28' E 004°36'0 0.0
2014-Oct-02 06:33N 52°28' E 004°36'0 0.0
2014-Oct-02 05:33N 52°28' E 004°36'0 0.0
2014-Oct-02 04:33N 52°28' E 004°36'0 0.0
2014-Oct-02 03:33N 52°28' E 004°36'0 0.0
2014-Oct-02 02:33N 52°28' E 004°36'0 0.0
2014-Oct-02 01:33N 52°28' E 004°36'0 0.0
2014-Oct-02 00:33N 52°28' E 004°36'0 0.0
2014-Oct-01 23:33N 52°28' E 004°37'0 0.0
2014-Oct-01 22:33N 52°28' E 004°36'0 0.0
2014-Oct-01 21:33N 52°28' E 004°36'0 0.0
2014-Oct-01 20:33N 52°28' E 004°36'0 0.0
2014-Oct-01 19:33N 52°28' E 004°36'0 0.0
2014-Oct-01 18:33N 52°28' E 004°36'0 0.0
2014-Oct-01 17:33N 52°28' E 004°36'0 0.0
2014-Oct-01 16:27N 52°28' E 004°36'0 0.0
2014-Oct-01 15:33N 52°28' E 004°36'0 0.0
2014-Oct-01 14:33N 52°28' E 004°37'0 0.0
2014-Oct-01 13:33N 52°28' E 004°36'0 0.0
2014-Oct-01 12:33N 52°28' E 004°37'0 0.0
2014-Oct-01 11:33N 52°28' E 004°36'0 0.0
2014-Oct-01 10:33N 52°28' E 004°37'1 0.6
2014-Oct-01 09:34N 52°28' E 004°36'1 1.0
2014-Oct-01 08:33N 52°28' E 004°38'8 7.7
2014-Oct-01 07:34N 52°25' E 004°49'2 1.9
2014-Oct-01 06:34N 52°24' E 004°52'0 0.0
2014-Oct-01 05:33N 52°24' E 004°52'0 0.0
2014-Oct-01 04:33N 52°24' E 004°52'0 0.0
2014-Oct-01 03:33N 52°24' E 004°52'0 0.0
2014-Oct-01 02:33N 52°24' E 004°52'0 0.0
2014-Oct-01 01:33N 52°24' E 004°52'0 0.0
2014-Oct-01 00:33N 52°24' E 004°52'0 0.0
2014-Sep-30 23:33N 52°24' E 004°52'0 0.0
2014-Sep-30 22:34N 52°24' E 004°52'0 0.0
2014-Sep-30 21:34N 52°24' E 004°52'0 0.0
2014-Sep-30 20:33N 52°24' E 004°52'0 0.0
2014-Sep-30 19:34N 52°24' E 004°52'0 0.0
2014-Sep-30 18:34N 52°24' E 004°52'0 0.0
2014-Sep-30 17:33N 52°24' E 004°52'0 0.0
2014-Sep-30 16:34N 52°24' E 004°52'0 0.0
2014-Sep-30 15:34N 52°24' E 004°52'2 1.6
2014-Sep-30 14:33N 52°25' E 004°50'9 8.7
2014-Sep-30 13:34N 52°28' E 004°36'4 4.0
2014-Sep-30 12:33N 52°28' E 004°30'9 8.7
2014-Sep-30 11:33N 52°29' E 004°16'9 8.7
2014-Sep-30 10:33N 52°28' E 004°01'2 1.2
2014-Sep-30 08:31N 52°26' E 003°59'0 0.0
2014-Sep-30 01:25N 52°26' E 003°59'0 0.0
2014-Sep-30 00:25N 52°26' E 003°59'0 0.0
2014-Sep-29 22:31N 52°26' E 003°59'0 0.1
2014-Sep-29 21:13N 52°26' E 003°59'0 0.0
2014-Sep-29 20:16N 52°26' E 003°59'0 0.0
2014-Sep-29 19:31N 52°26' E 003°59'0 0.0
2014-Sep-29 18:19N 52°26' E 003°59'0 0.0
2014-Sep-29 17:22N 52°26' E 003°59'0 0.0
2014-Sep-29 15:07N 52°26' E 003°59'0 0.1
2014-Sep-29 14:10N 52°26' E 003°59'0 0.0
2014-Sep-29 13:22N 52°26' E 003°59'0 0.0
2014-Sep-29 11:31N 52°26' E 003°59'0 0.0
2014-Sep-29 08:13N 52°26' E 003°59'0 0.0
2014-Sep-29 07:16N 52°26' E 003°59'0 0.0
2014-Sep-29 06:28N 52°26' E 003°59'0 0.0
2014-Sep-29 05:31N 52°26' E 003°59'0 0.0
2014-Sep-29 04:22N 52°26' E 003°59'0 0.0
2014-Sep-29 03:22N 52°26' E 003°59'0 0.1
2014-Sep-29 01:31N 52°26' E 003°59'0 0.0
2014-Sep-29 00:31N 52°26' E 003°59'0 0.0
2014-Sep-28 23:31N 52°26' E 003°59'0 0.0
2014-Sep-28 22:31N 52°26' E 003°59'0 0.0
2014-Sep-28 21:31N 52°26' E 003°59'0 0.1
2014-Sep-28 20:28N 52°26' E 003°59'0 0.1
2014-Sep-28 19:31N 52°26' E 003°59'0 0.0
2014-Sep-28 18:10N 52°26' E 003°59'0 0.0
2014-Sep-28 17:28N 52°26' E 003°59'0 0.1
2014-Sep-28 16:16N 52°26' E 003°59'0 0.0
2014-Sep-28 15:31N 52°26' E 003°59'0 0.1
2014-Sep-28 14:25N 52°26' E 003°59'0 0.0
2014-Sep-28 13:19N 52°26' E 003°59'0 0.0
2014-Sep-28 12:16N 52°26' E 003°59'0 0.0
2014-Sep-28 11:28N 52°26' E 003°59'0 0.0
2014-Sep-28 10:25N 52°26' E 003°59'0 0.0
2014-Sep-28 09:31N 52°26' E 003°59'0 0.0
2014-Sep-28 08:31N 52°26' E 003°59'0 0.1
2014-Sep-28 07:28N 52°26' E 003°59'0 0.0
2014-Sep-28 06:31N 52°26' E 003°59'0 0.0
2014-Sep-28 05:28N 52°26' E 003°59'0 0.0
2014-Sep-28 04:28N 52°26' E 003°59'0 0.0
2014-Sep-28 03:25N 52°26' E 003°59'0 0.1
2014-Sep-28 02:31N 52°26' E 003°59'0 0.0
2014-Sep-28 01:26N 52°26' E 003°59'0 0.0
2014-Sep-28 00:22N 52°26' E 003°59'0 0.0
2014-Sep-27 23:28N 52°26' E 003°59'0 0.0
2014-Sep-27 22:28N 52°26' E 003°59'0 0.0
2014-Sep-27 20:07N 52°26' E 003°59'0 0.1
2014-Sep-27 19:22N 52°26' E 003°59'0 0.0
2014-Sep-27 17:22N 52°26' E 003°59'0 0.0
2014-Sep-27 14:04N 52°26' E 003°59'0 0.1
2014-Sep-27 13:28N 52°26' E 003°59'0 0.0
2014-Sep-27 12:16N 52°26' E 003°59'0 0.0
2014-Sep-27 11:28N 52°26' E 003°59'0 0.0
2014-Sep-27 10:07N 52°26' E 003°59'0 0.0
2014-Sep-27 06:19N 52°26' E 003°59'0 0.0
2014-Sep-27 05:13N 52°26' E 003°59'0 0.0
2014-Sep-27 04:28N 52°26' E 003°59'0 0.0
2014-Sep-27 03:28N 52°26' E 003°59'0 0.1
2014-Sep-27 02:20N 52°26' E 003°59'0 0.1
2014-Sep-27 01:13N 52°26' E 003°59'2 0.8
2014-Sep-26 22:32N 52°27' E 003°55'76 9.3
2014-Sep-26 14:26N 53°32' E 004°58'910.7
2014-Sep-26 13:33N 53°36' E 005°13'1010.4
2014-Sep-26 12:33N 53°39' E 005°29'10 9.9
2014-Sep-26 11:33N 53°42' E 005°45'10 9.1
2014-Sep-26 10:30N 53°46' E 006°00'54 8.9
2014-Sep-26 04:28N 53°60' E 007°29'9 9.9
2014-Sep-26 03:33N 54°02' E 007°44'10 9.9
2014-Sep-26 02:33N 54°01' E 008°01'1310.0
2014-Sep-26 01:13N 53°59' E 008°23'6 9.0
2014-Sep-26 00:33N 53°58' E 008°33'8 8.1
2014-Sep-25 23:33N 53°53' E 008°43'8 7.5
2014-Sep-25 22:33N 53°51' E 008°56'8 8.2
2014-Sep-25 21:33N 53°54' E 009°09'1 0.9
2014-Sep-25 20:31N 53°54' E 009°10'32 6.5
2014-Sep-25 15:31N 54°20' E 009°44'7 7.5
2014-Sep-25 14:33N 54°20' E 009°56'7 6.5
2014-Sep-25 13:33N 54°22' E 010°07'1 1.4
2014-Sep-25 12:33N 54°22' E 010°09'7 6.8
2014-Sep-25 11:33N 54°28' E 010°15'28 9.1
2014-Sep-25 08:33N 54°36' E 011°00'8 8.3
2014-Sep-25 07:33N 54°35' E 011°14'9 8.7
2014-Sep-25 06:33N 54°31' E 011°28'10 9.6
2014-Sep-25 05:33N 54°28' E 011°44'10 9.9
2014-Sep-25 04:33N 54°27' E 012°01'9 8.7
2014-Sep-25 03:33N 54°32' E 012°12'1210.1
2014-Sep-25 02:19N 54°41' E 012°27'2210.1
2014-Sep-25 00:09N 54°51' E 013°01'6 9.8
2014-Sep-24 23:33N 54°53' E 013°11'9 9.4
2014-Sep-24 22:33N 54°56' E 013°26'19 9.5
2014-Sep-24 20:32N 55°03' E 013°57'9 9.2
2014-Sep-24 19:34N 55°09' E 014°10'9 9.4
2014-Sep-24 18:33N 55°16' E 014°20'9 9.4
2014-Sep-24 17:33N 55°23' E 014°30'9 9.1
2014-Sep-24 16:33N 55°32' E 014°36'10 9.7
2014-Sep-24 15:33N 55°41' E 014°37'  
Track history (hours):
 
Tides and Currents Weather Stations Pressure Air Temp Water Temp Dewpoint Dewpoint Depression Visibility Wind Speed Wind Dir Waves Ship Positions

#dbistima

Last reported at 2014-Oct-02 15:33 UTC. Time now 2014-Oct-02 16:31 UTC.
Position N 52°28' E 004°36'.

MMSI: 304010972.

Date/timePositionNaut miles runAvg speedWind from/ knotsBaromVisibWave heightAir tempDewpointWater temp
2014-Oct-02 15:33N 52°28' E 004°36'0 0.0
2014-Oct-02 14:33N 52°28' E 004°37'0 0.0
2014-Oct-02 13:33N 52°28' E 004°37'0 0.0
2014-Oct-02 12:33N 52°28' E 004°36'0 0.0
2014-Oct-02 11:33N 52°28' E 004°36'0 0.0
2014-Oct-02 10:33N 52°28' E 004°36'0 0.0
2014-Oct-02 09:33N 52°28' E 004°36'0 0.0
2014-Oct-02 08:33N 52°28' E 004°36'0 0.0
2014-Oct-02 07:30N 52°28' E 004°36'0 0.0
2014-Oct-02 06:33N 52°28' E 004°36'0 0.0
2014-Oct-02 05:33N 52°28' E 004°36'0 0.0
2014-Oct-02 04:33N 52°28' E 004°36'0 0.0
2014-Oct-02 03:33N 52°28' E 004°36'0 0.0
2014-Oct-02 02:33N 52°28' E 004°36'0 0.0
2014-Oct-02 01:33N 52°28' E 004°36'0 0.0
2014-Oct-02 00:33N 52°28' E 004°36'0 0.0
2014-Oct-01 23:33N 52°28' E 004°37'0 0.0
2014-Oct-01 22:33N 52°28' E 004°36'0 0.0
2014-Oct-01 21:33N 52°28' E 004°36'0 0.0
2014-Oct-01 20:33N 52°28' E 004°36'0 0.0
2014-Oct-01 19:33N 52°28' E 004°36'0 0.0
2014-Oct-01 18:33N 52°28' E 004°36'0 0.0
2014-Oct-01 17:33N 52°28' E 004°36'0 0.0
2014-Oct-01 16:27N 52°28' E 004°36'0 0.0
2014-Oct-01 15:33N 52°28' E 004°36'0 0.0
2014-Oct-01 14:33N 52°28' E 004°37'0 0.0
2014-Oct-01 13:33N 52°28' E 004°36'0 0.0
2014-Oct-01 12:33N 52°28' E 004°37'0 0.0
2014-Oct-01 11:33N 52°28' E 004°36'0 0.0
2014-Oct-01 10:33N 52°28' E 004°37'1 0.6
2014-Oct-01 09:34N 52°28' E 004°36'1 1.0
2014-Oct-01 08:33N 52°28' E 004°38'8 7.7
2014-Oct-01 07:34N 52°25' E 004°49'2 1.9
2014-Oct-01 06:34N 52°24' E 004°52'0 0.0
2014-Oct-01 05:33N 52°24' E 004°52'0 0.0
2014-Oct-01 04:33N 52°24' E 004°52'0 0.0
2014-Oct-01 03:33N 52°24' E 004°52'0 0.0
2014-Oct-01 02:33N 52°24' E 004°52'0 0.0
2014-Oct-01 01:33N 52°24' E 004°52'0 0.0
2014-Oct-01 00:33N 52°24' E 004°52'0 0.0
2014-Sep-30 23:33N 52°24' E 004°52'0 0.0
2014-Sep-30 22:34N 52°24' E 004°52'0 0.0
2014-Sep-30 21:34N 52°24' E 004°52'0 0.0
2014-Sep-30 20:33N 52°24' E 004°52'0 0.0
2014-Sep-30 19:34N 52°24' E 004°52'0 0.0
2014-Sep-30 18:34N 52°24' E 004°52'0 0.0
2014-Sep-30 17:33N 52°24' E 004°52'0 0.0
2014-Sep-30 16:34N 52°24' E 004°52'0 0.0
2014-Sep-30 15:34N 52°24' E 004°52'2 1.6
2014-Sep-30 14:33N 52°25' E 004°50'9 8.7
2014-Sep-30 13:34N 52°28' E 004°36'4 4.0
2014-Sep-30 12:33N 52°28' E 004°30'9 8.7
2014-Sep-30 11:33N 52°29' E 004°16'9 8.7
2014-Sep-30 10:33N 52°28' E 004°01'2 1.2
2014-Sep-30 08:31N 52°26' E 003°59'0 0.0
2014-Sep-30 01:25N 52°26' E 003°59'0 0.0
2014-Sep-30 00:25N 52°26' E 003°59'0 0.0
2014-Sep-29 22:31N 52°26' E 003°59'0 0.1
2014-Sep-29 21:13N 52°26' E 003°59'0 0.0
2014-Sep-29 20:16N 52°26' E 003°59'0 0.0
2014-Sep-29 19:31N 52°26' E 003°59'0 0.0
2014-Sep-29 18:19N 52°26' E 003°59'0 0.0
2014-Sep-29 17:22N 52°26' E 003°59'0 0.0
2014-Sep-29 15:07N 52°26' E 003°59'0 0.1
2014-Sep-29 14:10N 52°26' E 003°59'0 0.0
2014-Sep-29 13:22N 52°26' E 003°59'0 0.0
2014-Sep-29 11:31N 52°26' E 003°59'0 0.0
2014-Sep-29 08:13N 52°26' E 003°59'0 0.0
2014-Sep-29 07:16N 52°26' E 003°59'0 0.0
2014-Sep-29 06:28N 52°26' E 003°59'0 0.0
2014-Sep-29 05:31N 52°26' E 003°59'0 0.0
2014-Sep-29 04:22N 52°26' E 003°59'0 0.0
2014-Sep-29 03:22N 52°26' E 003°59'0 0.1
2014-Sep-29 01:31N 52°26' E 003°59'0 0.0
2014-Sep-29 00:31N 52°26' E 003°59'0 0.0
2014-Sep-28 23:31N 52°26' E 003°59'0 0.0
2014-Sep-28 22:31N 52°26' E 003°59'0 0.0
2014-Sep-28 21:31N 52°26' E 003°59'0 0.1
2014-Sep-28 20:28N 52°26' E 003°59'0 0.1
2014-Sep-28 19:31N 52°26' E 003°59'0 0.0
2014-Sep-28 18:10N 52°26' E 003°59'0 0.0
2014-Sep-28 17:28N 52°26' E 003°59'0 0.1
2014-Sep-28 16:16N 52°26' E 003°59'0 0.0
2014-Sep-28 15:31N 52°26' E 003°59'0 0.1
2014-Sep-28 14:25N 52°26' E 003°59'0 0.0
2014-Sep-28 13:19N 52°26' E 003°59'0 0.0
2014-Sep-28 12:16N 52°26' E 003°59'0 0.0
2014-Sep-28 11:28N 52°26' E 003°59'0 0.0
2014-Sep-28 10:25N 52°26' E 003°59'0 0.0
2014-Sep-28 09:31N 52°26' E 003°59'0 0.0
2014-Sep-28 08:31N 52°26' E 003°59'0 0.1
2014-Sep-28 07:28N 52°26' E 003°59'0 0.0
2014-Sep-28 06:31N 52°26' E 003°59'0 0.0
2014-Sep-28 05:28N 52°26' E 003°59'0 0.0
2014-Sep-28 04:28N 52°26' E 003°59'0 0.0
2014-Sep-28 03:25N 52°26' E 003°59'0 0.1
2014-Sep-28 02:31N 52°26' E 003°59'0 0.0
2014-Sep-28 01:26N 52°26' E 003°59'0 0.0
2014-Sep-28 00:22N 52°26' E 003°59'0 0.0
2014-Sep-27 23:28N 52°26' E 003°59'0 0.0
2014-Sep-27 22:28N 52°26' E 003°59'0 0.0
2014-Sep-27 20:07N 52°26' E 003°59'0 0.1
2014-Sep-27 19:22N 52°26' E 003°59'0 0.0
2014-Sep-27 17:22N 52°26' E 003°59'0 0.0
2014-Sep-27 14:04N 52°26' E 003°59'0 0.1
2014-Sep-27 13:28N 52°26' E 003°59'0 0.0
2014-Sep-27 12:16N 52°26' E 003°59'0 0.0
2014-Sep-27 11:28N 52°26' E 003°59'0 0.0
2014-Sep-27 10:07N 52°26' E 003°59'0 0.0
2014-Sep-27 06:19N 52°26' E 003°59'0 0.0
2014-Sep-27 05:13N 52°26' E 003°59'0 0.0
2014-Sep-27 04:28N 52°26' E 003°59'0 0.0
2014-Sep-27 03:28N 52°26' E 003°59'0 0.1
2014-Sep-27 02:20N 52°26' E 003°59'0 0.1
2014-Sep-27 01:13N 52°26' E 003°59'2 0.8
2014-Sep-26 22:32N 52°27' E 003°55'76 9.3
2014-Sep-26 14:26N 53°32' E 004°58'910.7
2014-Sep-26 13:33N 53°36' E 005°13'1010.4
2014-Sep-26 12:33N 53°39' E 005°29'10 9.9
2014-Sep-26 11:33N 53°42' E 005°45'10 9.1
2014-Sep-26 10:30N 53°46' E 006°00'54 8.9
2014-Sep-26 04:28N 53°60' E 007°29'9 9.9
2014-Sep-26 03:33N 54°02' E 007°44'10 9.9
2014-Sep-26 02:33N 54°01' E 008°01'1310.0
2014-Sep-26 01:13N 53°59' E 008°23'6 9.0
2014-Sep-26 00:33N 53°58' E 008°33'8 8.1
2014-Sep-25 23:33N 53°53' E 008°43'8 7.5
2014-Sep-25 22:33N 53°51' E 008°56'8 8.2
2014-Sep-25 21:33N 53°54' E 009°09'1 0.9
2014-Sep-25 20:31N 53°54' E 009°10'32 6.5
2014-Sep-25 15:31N 54°20' E 009°44'7 7.5
2014-Sep-25 14:33N 54°20' E 009°56'7 6.5
2014-Sep-25 13:33N 54°22' E 010°07'1 1.4
2014-Sep-25 12:33N 54°22' E 010°09'7 6.8
2014-Sep-25 11:33N 54°28' E 010°15'28 9.1
2014-Sep-25 08:33N 54°36' E 011°00'8 8.3
2014-Sep-25 07:33N 54°35' E 011°14'9 8.7
2014-Sep-25 06:33N 54°31' E 011°28'10 9.6
2014-Sep-25 05:33N 54°28' E 011°44'10 9.9
2014-Sep-25 04:33N 54°27' E 012°01'9 8.7
2014-Sep-25 03:33N 54°32' E 012°12'1210.1
2014-Sep-25 02:19N 54°41' E 012°27'2210.1
2014-Sep-25 00:09N 54°51' E 013°01'6 9.8
2014-Sep-24 23:33N 54°53' E 013°11'9 9.4
2014-Sep-24 22:33N 54°56' E 013°26'19 9.5
2014-Sep-24 20:32N 55°03' E 013°57'9 9.2
2014-Sep-24 19:34N 55°09' E 014°10'9 9.4
2014-Sep-24 18:33N 55°16' E 014°20'9 9.4
2014-Sep-24 17:33N 55°23' E 014°30'9 9.1
2014-Sep-24 16:33N 55°32' E 014°36'10 9.7
2014-Sep-24 15:33N 55°41' E 014°37'  

Dump ship's entire track history